Time;durP1;ratioP1;P1;durP2;ratioP2;P2;SDS_P1;SDS_P2;PMS_P1;PMS_P2;Temp;Humidity;BMP_temperature;BMP_pressure;BME280_temperature;BME280_humidity;BME280_pressure;Samples;Min_cycle;Max_cycle;Signal;HPM_P1;HPM_P2
2022/12/25 00:01:43;;;;;;;0.75;0.60;;;11.20;99.90;;;;;;5065076;28;20058;-75
2022/12/25 00:04:10;;;;;;;0.95;0.60;;;11.10;99.90;;;;;;5056419;28;20067;-75
2022/12/25 00:06:37;;;;;;;1.23;0.50;;;11.10;99.90;;;;;;5040116;28;20052;-75
2022/12/25 00:09:04;;;;;;;1.33;0.50;;;11.10;99.90;;;;;;5041566;28;20082;-76
2022/12/25 00:11:31;;;;;;;1.50;0.60;;;11.10;99.90;;;;;;5054308;28;20574;-75
2022/12/25 00:13:57;;;;;;;1.25;0.63;;;11.10;99.90;;;;;;5037220;28;20055;-75
2022/12/25 00:16:25;;;;;;;0.47;0.40;;;11.10;99.90;;;;;;5051113;28;20049;-75
2022/12/25 00:18:52;;;;;;;0.57;0.50;;;11.10;99.90;;;;;;5038893;28;20183;-75
2022/12/25 00:21:19;;;;;;;0.40;0.40;;;11.20;99.90;;;;;;5057977;28;20174;-75
2022/12/25 00:23:46;;;;;;;0.68;0.45;;;11.20;99.90;;;;;;5024628;28;20136;-75
2022/12/25 00:26:14;;;;;;;0.88;0.50;;;11.20;99.90;;;;;;5058755;28;20514;-75
2022/12/25 00:28:41;;;;;;;1.83;0.65;;;11.30;99.90;;;;;;5032932;28;20048;-75
2022/12/25 00:31:13;;;;;;;2.60;0.90;;;11.20;99.90;;;;;;5043664;28;20114;-75
2022/12/25 00:33:41;;;;;;;2.13;1.05;;;11.20;99.90;;;;;;5043862;28;20048;-75
2022/12/25 00:36:10;;;;;;;1.85;0.63;;;11.30;99.90;;;;;;5025872;28;20520;-74
2022/12/25 00:38:37;;;;;;;1.02;0.50;;;11.30;99.90;;;;;;5065669;28;20063;-74
2022/12/25 00:41:12;;;;;;;0.88;0.60;;;11.20;99.90;;;;;;5037571;28;20070;-76
2022/12/25 00:43:40;;;;;;;0.82;0.50;;;11.20;99.90;;;;;;5057432;28;20127;-75
2022/12/25 00:46:08;;;;;;;0.55;0.50;;;11.10;99.90;;;;;;5041755;28;20049;-74
2022/12/25 00:48:35;;;;;;;3.33;1.05;;;11.00;99.90;;;;;;5043787;28;20056;-75
2022/12/25 00:51:03;;;;;;;0.40;0.30;;;10.90;99.90;;;;;;5024892;28;20063;-75
2022/12/25 00:53:30;;;;;;;0.82;0.47;;;10.80;99.90;;;;;;5051722;28;20048;-74
2022/12/25 00:56:04;;;;;;;0.50;0.50;;;10.80;99.90;;;;;;5044628;28;20074;-77
2022/12/25 00:58:32;;;;;;;1.05;0.60;;;10.70;99.90;;;;;;5046515;28;20179;-76
2022/12/25 01:00:59;;;;;;;0.68;0.57;;;10.70;99.90;;;;;;5052125;28;20586;-75
2022/12/25 01:03:26;;;;;;;0.68;0.50;;;10.70;99.90;;;;;;5058001;28;20057;-74
2022/12/25 01:06:01;;;;;;;0.63;0.38;;;10.80;99.90;;;;;;5043735;28;20102;-75
2022/12/25 01:08:32;;;;;;;1.00;0.60;;;10.80;99.90;;;;;;5029961;28;20703;-75
2022/12/25 01:11:01;;;;;;;1.27;0.70;;;10.80;99.90;;;;;;5025707;28;20555;-75
2022/12/25 01:13:28;;;;;;;1.27;0.70;;;10.90;99.90;;;;;;5059320;28;20575;-74
2022/12/25 01:15:55;;;;;;;0.93;0.40;;;10.90;99.90;;;;;;5058861;28;20055;-75
2022/12/25 01:18:22;;;;;;;1.05;0.38;;;10.90;99.90;;;;;;5060520;28;20052;-75
2022/12/25 01:20:49;;;;;;;0.40;0.40;;;11.00;99.90;;;;;;5051147;28;20056;-75
2022/12/25 01:23:16;;;;;;;0.40;0.40;;;11.00;99.90;;;;;;5026377;28;20088;-75
2022/12/25 01:25:43;;;;;;;0.45;0.43;;;11.00;99.90;;;;;;5059691;28;20476;-74
2022/12/25 01:28:09;;;;;;;0.60;0.50;;;11.00;99.90;;;;;;5057521;28;20407;-74
2022/12/25 01:30:36;;;;;;;0.35;0.30;;;11.00;99.90;;;;;;5062784;28;20067;-75
2022/12/25 01:33:03;;;;;;;0.63;0.40;;;11.00;99.90;;;;;;5061700;28;20071;-75
2022/12/25 01:35:30;;;;;;;0.38;0.38;;;10.90;99.90;;;;;;5047315;28;20123;-75
2022/12/25 01:37:57;;;;;;;0.50;0.40;;;10.90;99.90;;;;;;5063250;28;20680;-75
2022/12/25 01:40:23;;;;;;;0.95;0.50;;;10.90;99.90;;;;;;5021873;28;20480;-75
2022/12/25 01:42:50;;;;;;;0.40;0.40;;;10.80;99.90;;;;;;5042426;28;20110;-74
2022/12/25 01:45:31;;;;;;;0.50;0.40;;;10.80;99.90;;;;;;5064468;28;20067;-75
2022/12/25 01:47:58;;;;;;;0.22;0.22;;;10.70;99.90;;;;;;5065431;28;20048;-77
2022/12/25 01:50:25;;;;;;;0.20;0.20;;;10.70;99.90;;;;;;5064060;28;20487;-75
2022/12/25 01:52:51;;;;;;;0.40;0.40;;;10.70;99.90;;;;;;5063492;28;21777;-76
2022/12/25 01:55:18;;;;;;;0.20;0.20;;;10.60;99.90;;;;;;5045917;28;20044;-75
2022/12/25 01:57:45;;;;;;;0.80;0.40;;;10.60;99.90;;;;;;5045610;28;20084;-75
2022/12/25 02:00:12;;;;;;;0.38;0.30;;;10.60;99.90;;;;;;5064510;28;20049;-75
2022/12/25 02:02:39;;;;;;;0.77;0.60;;;10.60;99.90;;;;;;5065475;28;20059;-75
2022/12/25 02:05:23;;;;;;;0.52;0.40;;;10.50;99.90;;;;;;5047365;28;20047;-75
2022/12/25 02:07:50;;;;;;;1.30;0.30;;;10.60;99.90;;;;;;5066056;28;20095;-75
2022/12/25 02:10:17;;;;;;;0.55;0.38;;;10.60;99.90;;;;;;5064698;28;20123;-75
2022/12/25 02:12:43;;;;;;;0.35;0.35;;;10.60;99.90;;;;;;5064524;28;20044;-75
2022/12/25 02:15:19;;;;;;;0.40;0.40;;;10.60;99.90;;;;;;5047960;28;20036;-75
2022/12/25 02:17:51;;;;;;;0.35;0.25;;;10.60;99.90;;;;;;5036785;28;20056;-75
2022/12/25 02:20:29;;;;;;;0.40;0.30;;;10.60;99.90;;;;;;5066852;28;20110;-75
2022/12/25 02:23:31;;;;;;;0.20;0.20;;;10.70;99.90;;;;;;5065393;28;20393;-75
2022/12/25 02:26:28;;;;;;;0.65;0.40;;;10.70;99.90;;;;;;5063934;28;20344;-75
2022/12/25 02:29:08;;;;;;;0.88;0.40;;;10.70;99.90;;;;;;5063337;28;20049;-75
2022/12/25 02:31:42;;;;;;;0.50;0.30;;;10.70;99.90;;;;;;5045389;28;20490;-75
2022/12/25 02:34:19;;;;;;;1.58;0.20;;;10.70;99.90;;;;;;5023952;28;20052;-74
2022/12/25 02:37:09;;;;;;;0.88;0.40;;;10.80;99.90;;;;;;5029511;28;20128;-75
2022/12/25 02:39:56;;;;;;;0.30;0.30;;;10.70;99.90;;;;;;5059233;28;20397;-75
2022/12/25 03:07:33;;;;;;;0.20;0.20;;;10.80;99.90;;;;;;5062597;28;20091;-75
2022/12/25 03:12:57;;;;;;;0.77;0.30;;;10.90;99.90;;;;;;5074814;28;20082;-75
2022/12/25 03:18:14;;;;;;;0.52;0.32;;;10.90;99.90;;;;;;5064942;28;20072;-76
2022/12/25 03:29:01;;;;;;;0.30;0.22;;;11.00;99.90;;;;;;5051697;28;20047;-74
2022/12/25 03:31:45;;;;;;;0.17;0.17;;;11.00;99.90;;;;;;5046520;28;20059;-75
2022/12/25 04:36:31;;;;;;;0.50;0.35;;;11.20;99.90;;;;;;5059134;28;20049;-76
2022/12/25 04:38:58;;;;;;;1.65;0.43;;;11.20;99.90;;;;;;5042292;28;20124;-75
2022/12/25 04:41:25;;;;;;;0.80;0.28;;;11.20;99.90;;;;;;5065489;28;20127;-76
2022/12/25 04:43:51;;;;;;;0.50;0.40;;;11.20;99.90;;;;;;5068158;28;20048;-75
2022/12/25 04:46:18;;;;;;;1.75;0.50;;;11.20;99.90;;;;;;5020854;28;20052;-76
2022/12/25 04:48:45;;;;;;;0.85;0.32;;;11.20;99.90;;;;;;5062944;28;20055;-76
2022/12/25 04:51:21;;;;;;;0.20;0.20;;;11.20;99.90;;;;;;5066982;28;20045;-75
2022/12/25 04:53:48;;;;;;;0.40;0.30;;;11.20;99.90;;;;;;5069916;28;20126;-75
2022/12/25 04:56:15;;;;;;;0.30;0.30;;;11.10;99.90;;;;;;5093261;28;20614;-76
2022/12/25 04:58:42;;;;;;;0.38;0.32;;;11.10;99.90;;;;;;5048780;28;20052;-75
2022/12/25 05:01:09;;;;;;;0.63;0.40;;;11.10;99.90;;;;;;5053348;28;20043;-76
2022/12/25 05:03:36;;;;;;;0.77;0.40;;;11.10;99.90;;;;;;5056578;28;20052;-77
2022/12/25 05:06:03;;;;;;;0.52;0.45;;;11.10;99.90;;;;;;5038276;28;20125;-76
2022/12/25 05:08:31;;;;;;;0.22;0.20;;;11.10;99.90;;;;;;5063407;28;20131;-76
2022/12/25 05:10:57;;;;;;;0.40;0.40;;;11.10;99.90;;;;;;5045594;28;20091;-76
2022/12/25 05:13:24;;;;;;;0.30;0.30;;;11.10;99.90;;;;;;5055659;28;20045;-76
2022/12/25 05:15:51;;;;;;;0.35;0.30;;;11.10;99.90;;;;;;5054490;28;20140;-76
2022/12/25 05:18:18;;;;;;;0.75;0.32;;;11.10;99.90;;;;;;5061429;28;20037;-75
2022/12/25 05:20:53;;;;;;;0.30;0.22;;;11.10;99.90;;;;;;5054322;28;20088;-76
2022/12/25 05:23:20;;;;;;;0.65;0.40;;;11.10;99.90;;;;;;5045195;28;20609;-76
2022/12/25 05:25:47;;;;;;;0.43;0.38;;;11.10;99.90;;;;;;5048719;28;20055;-76
2022/12/25 05:28:14;;;;;;;1.48;0.63;;;11.00;99.90;;;;;;5058166;28;20335;-74
2022/12/25 05:30:40;;;;;;;0.85;0.50;;;11.00;99.90;;;;;;5060371;28;20135;-76
2022/12/25 05:33:07;;;;;;;0.80;0.60;;;11.00;99.90;;;;;;5042431;28;20044;-75
2022/12/25 05:35:36;;;;;;;0.35;0.35;;;11.00;99.90;;;;;;5028565;28;20693;-75
2022/12/25 05:38:04;;;;;;;0.85;0.45;;;11.10;99.90;;;;;;5046380;28;20131;-75
2022/12/25 05:40:30;;;;;;;1.40;0.70;;;11.10;99.90;;;;;;5060264;28;20456;-75
2022/12/25 05:42:57;;;;;;;0.30;0.28;;;11.10;99.90;;;;;;5064827;28;20477;-75
2022/12/25 05:45:24;;;;;;;0.40;0.40;;;11.10;99.90;;;;;;5036850;28;20067;-75
2022/12/25 05:47:51;;;;;;;0.73;0.52;;;11.10;99.90;;;;;;5064017;28;20043;-75
2022/12/25 05:50:18;;;;;;;0.73;0.35;;;11.10;99.90;;;;;;5052191;28;20063;-74
2022/12/25 05:52:45;;;;;;;0.95;0.50;;;11.10;99.90;;;;;;5056763;28;20060;-75
2022/12/25 05:55:11;;;;;;;0.75;0.30;;;11.20;99.90;;;;;;5061881;28;20088;-75
2022/12/25 05:57:38;;;;;;;0.80;0.40;;;11.20;99.90;;;;;;5042221;28;20048;-75
2022/12/25 06:00:05;;;;;;;0.73;0.30;;;11.20;99.90;;;;;;5043182;28;20057;-75
2022/12/25 06:02:34;;;;;;;0.22;0.22;;;11.20;99.90;;;;;;5046637;28;20084;-75
2022/12/25 06:05:02;;;;;;;0.47;0.32;;;11.20;99.90;;;;;;5045584;28;20125;-74
2022/12/25 06:07:29;;;;;;;0.82;0.70;;;11.20;99.90;;;;;;5059211;28;20490;-75
2022/12/25 06:09:56;;;;;;;1.17;0.40;;;11.20;99.90;;;;;;5041694;28;20055;-74
2022/12/25 06:12:22;;;;;;;1.15;0.50;;;11.20;99.90;;;;;;5063726;28;20491;-74
2022/12/25 06:14:49;;;;;;;0.75;0.52;;;11.20;99.90;;;;;;5060077;28;20159;-75
2022/12/25 06:17:16;;;;;;;1.10;0.30;;;11.20;99.90;;;;;;5062800;28;20059;-75
2022/12/25 06:19:43;;;;;;;0.50;0.35;;;11.20;99.90;;;;;;5045710;28;20127;-76
2022/12/25 06:22:09;;;;;;;0.70;0.40;;;11.20;99.90;;;;;;5054591;28;20059;-76
2022/12/25 06:24:37;;;;;;;0.30;0.30;;;11.10;99.90;;;;;;5059271;28;20505;-77
2022/12/25 06:27:04;;;;;;;0.95;0.40;;;11.10;99.90;;;;;;5059577;28;20090;-77
2022/12/25 06:29:30;;;;;;;0.57;0.30;;;11.10;99.90;;;;;;5036303;28;20123;-77
2022/12/25 06:31:57;;;;;;;0.63;0.30;;;11.00;99.90;;;;;;5037431;28;20159;-76
2022/12/25 06:34:24;;;;;;;0.65;0.30;;;11.00;99.90;;;;;;5056166;28;20079;-76
2022/12/25 06:36:52;;;;;;;1.33;0.40;;;11.00;99.90;;;;;;5050258;28;20049;-78
2022/12/25 06:39:20;;;;;;;0.77;0.40;;;11.00;99.90;;;;;;5039127;28;20053;-74
2022/12/25 06:41:47;;;;;;;0.30;0.20;;;11.00;99.90;;;;;;5058561;28;20102;-74
2022/12/25 06:44:13;;;;;;;0.47;0.30;;;11.00;99.90;;;;;;5063860;28;20641;-74
2022/12/25 06:46:40;;;;;;;0.80;0.35;;;11.00;99.90;;;;;;5062495;28;20388;-74
2022/12/25 06:49:07;;;;;;;0.30;0.30;;;10.90;99.90;;;;;;5060910;28;20056;-74
2022/12/25 06:51:33;;;;;;;0.77;0.50;;;10.90;99.90;;;;;;5037893;28;20118;-74
2022/12/25 06:54:02;;;;;;;0.75;0.40;;;10.90;99.90;;;;;;5055825;28;20488;-75
2022/12/25 06:56:30;;;;;;;0.68;0.30;;;10.90;99.90;;;;;;5058204;28;20075;-74
2022/12/25 06:58:58;;;;;;;0.73;0.52;;;10.90;99.90;;;;;;5060280;28;20056;-74
2022/12/25 07:01:49;;;;;;;0.95;0.50;;;10.90;99.90;;;;;;5051909;28;20060;-75
2022/12/25 07:04:20;;;;;;;0.63;0.40;;;10.90;99.90;;;;;;5050810;28;20086;-77
2022/12/25 07:06:47;;;;;;;0.98;0.30;;;10.90;99.90;;;;;;5038009;28;20059;-77
2022/12/25 07:09:14;;;;;;;0.43;0.30;;;10.90;99.90;;;;;;5050238;28;20650;-77
2022/12/25 07:11:40;;;;;;;0.70;0.45;;;10.90;99.90;;;;;;5038479;28;20143;-74
2022/12/25 07:14:15;;;;;;;0.85;0.43;;;10.90;99.90;;;;;;5052027;28;20052;-74
2022/12/25 07:16:49;;;;;;;1.05;0.50;;;10.90;99.90;;;;;;5049470;28;20076;-74
2022/12/25 07:19:18;;;;;;;0.60;0.40;;;10.90;99.90;;;;;;5036191;28;20052;-75
2022/12/25 07:21:45;;;;;;;1.73;0.50;;;10.80;99.90;;;;;;5063351;28;20138;-74
2022/12/25 07:24:16;;;;;;;0.40;0.40;;;10.90;99.90;;;;;;5057933;28;20079;-74
2022/12/25 07:26:43;;;;;;;0.52;0.45;;;10.90;99.90;;;;;;5060929;28;20464;-75
2022/12/25 07:29:09;;;;;;;1.08;0.45;;;10.90;99.90;;;;;;5059790;28;20040;-75
2022/12/25 07:31:36;;;;;;;0.50;0.50;;;10.90;99.90;;;;;;5029884;28;20048;-76
2022/12/25 07:34:03;;;;;;;0.40;0.40;;;11.00;99.90;;;;;;5057645;28;20048;-76
2022/12/25 07:36:30;;;;;;;0.80;0.63;;;11.00;99.90;;;;;;5061794;28;20063;-75
2022/12/25 07:38:56;;;;;;;0.70;0.38;;;11.00;99.90;;;;;;5046997;28;20052;-74
2022/12/25 07:41:23;;;;;;;1.27;0.63;;;11.00;99.90;;;;;;5050665;28;20152;-75
2022/12/25 07:43:51;;;;;;;1.25;0.35;;;11.00;99.90;;;;;;5057965;28;20044;-73
2022/12/25 07:46:18;;;;;;;0.60;0.40;;;11.10;99.90;;;;;;5050263;28;20130;-74
2022/12/25 07:48:45;;;;;;;0.63;0.40;;;11.10;99.90;;;;;;5058388;28;20048;-75
2022/12/25 07:51:13;;;;;;;0.30;0.30;;;11.10;99.90;;;;;;5051992;28;20447;-74
2022/12/25 07:53:40;;;;;;;0.30;0.30;;;11.20;99.90;;;;;;5049101;28;20142;-74
2022/12/25 07:56:11;;;;;;;0.60;0.60;;;11.20;99.90;;;;;;5034394;28;20048;-74
2022/12/25 07:58:38;;;;;;;0.52;0.30;;;11.20;99.90;;;;;;5028979;28;20049;-74
2022/12/25 08:01:06;;;;;;;1.35;0.75;;;11.20;99.90;;;;;;5054936;28;20055;-75
2022/12/25 08:03:34;;;;;;;1.42;0.63;;;11.20;99.90;;;;;;5056843;28;20060;-74
2022/12/25 08:06:01;;;;;;;1.08;0.50;;;11.30;99.90;;;;;;5057125;28;20048;-74
2022/12/25 08:08:28;;;;;;;0.75;0.30;;;11.20;99.90;;;;;;5037919;28;20464;-75
2022/12/25 08:10:55;;;;;;;0.43;0.35;;;11.20;99.90;;;;;;5055556;28;20473;-75
2022/12/25 08:13:22;;;;;;;2.05;0.63;;;11.20;99.90;;;;;;5057565;28;20151;-75
2022/12/25 08:15:49;;;;;;;0.85;0.47;;;11.20;99.90;;;;;;5049232;28;20051;-75
2022/12/25 08:18:16;;;;;;;1.77;1.00;;;11.20;99.90;;;;;;5046404;28;20683;-75
2022/12/25 08:20:43;;;;;;;1.65;0.57;;;11.20;99.90;;;;;;5051510;28;20564;-75
2022/12/25 08:23:10;;;;;;;1.13;0.70;;;11.20;99.90;;;;;;5056226;28;20085;-74
2022/12/25 08:25:36;;;;;;;1.98;0.63;;;11.20;99.90;;;;;;5057162;28;20055;-75
2022/12/25 08:28:03;;;;;;;0.70;0.57;;;11.20;99.90;;;;;;5051057;28;20203;-75
2022/12/25 08:30:30;;;;;;;1.05;0.93;;;11.20;99.90;;;;;;5052140;28;20079;-74
2022/12/25 08:32:57;;;;;;;0.65;0.50;;;11.20;99.90;;;;;;5062092;28;20401;-75
2022/12/25 08:35:25;;;;;;;0.73;0.55;;;11.20;99.90;;;;;;5026800;28;20539;-74
2022/12/25 08:37:51;;;;;;;0.38;0.38;;;11.20;99.90;;;;;;5037750;28;20071;-74
2022/12/25 08:40:18;;;;;;;0.20;0.20;;;11.20;99.90;;;;;;5056363;28;20049;-74
2022/12/25 08:42:45;;;;;;;1.30;0.40;;;11.20;99.90;;;;;;5054091;28;20051;-74
2022/12/25 08:45:11;;;;;;;0.95;0.60;;;11.20;99.90;;;;;;5052589;28;20040;-75
2022/12/25 08:47:38;;;;;;;0.75;0.50;;;11.10;99.90;;;;;;5056859;28;20517;-74
2022/12/25 08:50:06;;;;;;;0.93;0.40;;;11.10;99.90;;;;;;5049327;28;20056;-74
2022/12/25 08:52:32;;;;;;;0.73;0.40;;;11.10;99.90;;;;;;5054311;28;20045;-74
2022/12/25 08:54:59;;;;;;;0.40;0.40;;;11.10;99.90;;;;;;5059533;28;20231;-74
2022/12/25 08:57:26;;;;;;;0.77;0.52;;;11.10;99.90;;;;;;5047677;28;20045;-74
2022/12/25 08:59:53;;;;;;;0.82;0.45;;;11.10;99.90;;;;;;5058743;28;20476;-74
2022/12/25 09:02:20;;;;;;;0.73;0.50;;;11.10;99.90;;;;;;5062344;28;20193;-74
2022/12/25 09:04:47;;;;;;;0.88;0.57;;;11.10;99.90;;;;;;5064514;28;20056;-74
2022/12/25 09:07:13;;;;;;;0.65;0.40;;;11.20;99.90;;;;;;5053466;28;20055;-74
2022/12/25 09:09:42;;;;;;;0.80;0.38;;;11.20;99.90;;;;;;5060622;28;20045;-74
2022/12/25 09:12:09;;;;;;;0.50;0.45;;;11.20;99.90;;;;;;5061349;28;20044;-74
2022/12/25 09:14:35;;;;;;;0.77;0.60;;;11.20;99.90;;;;;;5065759;28;20510;-74
2022/12/25 09:17:02;;;;;;;0.47;0.30;;;11.20;99.90;;;;;;5037044;28;20048;-74
2022/12/25 09:19:29;;;;;;;1.10;0.70;;;11.20;99.90;;;;;;5066539;28;20425;-74
2022/12/25 09:21:56;;;;;;;2.38;0.95;;;11.20;99.90;;;;;;5061026;28;20061;-74
2022/12/25 09:24:23;;;;;;;1.30;0.70;;;11.20;99.90;;;;;;5071309;28;20068;-75
2022/12/25 09:26:50;;;;;;;1.20;0.80;;;11.20;99.90;;;;;;5054102;28;20122;-74
2022/12/25 09:29:17;;;;;;;1.20;0.77;;;11.20;99.90;;;;;;5049548;28;20500;-76
2022/12/25 09:31:44;;;;;;;1.05;0.80;;;11.20;99.90;;;;;;5047977;28;20176;-75
2022/12/25 09:34:10;;;;;;;1.48;0.88;;;11.20;99.90;;;;;;5064233;28;20044;-76
2022/12/25 09:36:44;;;;;;;1.67;0.70;;;11.20;99.90;;;;;;5061780;28;20135;-78
2022/12/25 09:39:12;;;;;;;0.85;0.70;;;11.20;99.90;;;;;;5050287;28;20090;-77
2022/12/25 09:41:59;;;;;;;0.82;0.65;;;11.20;99.90;;;;;;5062426;28;20103;-77
2022/12/25 09:44:37;;;;;;;1.38;0.90;;;11.30;99.90;;;;;;5073425;28;20169;-77
2022/12/25 09:47:15;;;;;;;1.50;0.70;;;11.30;99.90;;;;;;5044397;28;20044;-78
2022/12/25 09:50:06;;;;;;;1.38;0.80;;;11.30;99.90;;;;;;5041880;28;20143;-80
2022/12/25 09:52:47;;;;;;;1.10;0.70;;;11.40;99.90;;;;;;5062573;28;20052;-80
2022/12/25 09:55:17;;;;;;;0.30;0.30;;;11.40;99.90;;;;;;5045234;28;20128;-79
2022/12/25 09:57:51;;;;;;;1.27;0.47;;;11.40;99.90;;;;;;5057822;28;20135;-78
2022/12/25 10:00:23;;;;;;;0.75;0.50;;;11.50;99.90;;;;;;5022967;28;20353;-77
2022/12/25 10:03:05;;;;;;;0.82;0.50;;;11.50;99.90;;;;;;5022478;28;20139;-78
2022/12/25 10:05:38;;;;;;;0.75;0.50;;;11.50;99.90;;;;;;5035174;28;20500;-77
2022/12/25 10:08:38;;;;;;;0.40;0.30;;;11.50;99.90;;;;;;5030428;28;20052;-78
2022/12/25 10:11:25;;;;;;;0.55;0.50;;;11.50;99.90;;;;;;5052141;28;20573;-78
2022/12/25 10:13:59;;;;;;;0.65;0.45;;;11.60;99.90;;;;;;5047755;28;20647;-78
2022/12/25 10:16:45;;;;;;;0.88;0.70;;;11.60;99.90;;;;;;5040765;28;20045;-79
2022/12/25 10:20:03;;;;;;;0.80;0.52;;;11.60;99.90;;;;;;5053546;28;20633;-78
2022/12/25 10:22:36;;;;;;;1.15;0.50;;;11.60;99.90;;;;;;5025648;28;20136;-78
2022/12/25 10:25:09;;;;;;;0.55;0.40;;;11.70;99.90;;;;;;5038041;28;20374;-78
2022/12/25 10:27:36;;;;;;;0.55;0.40;;;11.70;99.90;;;;;;5047901;28;20060;-78
2022/12/25 10:30:24;;;;;;;1.55;0.57;;;11.70;99.90;;;;;;5047366;28;20506;-79
2022/12/25 10:32:51;;;;;;;0.40;0.40;;;11.70;99.90;;;;;;5063987;28;20049;-78
2022/12/25 10:35:20;;;;;;;2.28;0.47;;;11.80;99.90;;;;;;5045746;28;20075;-78
2022/12/25 10:37:57;;;;;;;0.50;0.50;;;11.80;99.90;;;;;;5021045;28;20632;-77
2022/12/25 10:40:27;;;;;;;0.90;0.50;;;11.80;99.90;;;;;;5037484;28;20346;-78
2022/12/25 10:42:56;;;;;;;0.60;0.55;;;11.90;99.90;;;;;;5055243;28;20139;-77
2022/12/25 10:45:23;;;;;;;0.68;0.52;;;11.90;99.90;;;;;;5039081;28;20075;-78
2022/12/25 10:47:59;;;;;;;0.50;0.40;;;11.90;99.90;;;;;;5040363;28;20645;-77
2022/12/25 10:50:33;;;;;;;0.95;0.50;;;11.90;99.90;;;;;;5037829;28;20401;-76
2022/12/25 10:53:00;;;;;;;0.30;0.30;;;12.00;99.90;;;;;;5041019;28;20053;-77
2022/12/25 10:55:27;;;;;;;0.35;0.30;;;11.90;99.90;;;;;;5041638;28;20151;-77
2022/12/25 10:57:56;;;;;;;0.50;0.40;;;11.90;99.90;;;;;;5038208;28;20044;-77
2022/12/25 11:00:28;;;;;;;0.40;0.40;;;12.00;99.90;;;;;;5037484;28;20059;-78
2022/12/25 11:02:55;;;;;;;0.65;0.45;;;12.00;99.90;;;;;;5040156;28;20052;-76
2022/12/25 11:05:27;;;;;;;0.88;0.45;;;12.10;99.90;;;;;;5042323;28;20057;-78
2022/12/25 11:07:54;;;;;;;1.20;0.50;;;12.20;99.90;;;;;;5047890;28;20465;-81
2022/12/25 11:10:30;;;;;;;0.30;0.30;;;12.30;99.90;;;;;;5036591;28;20041;-78
2022/12/25 11:12:58;;;;;;;0.98;0.52;;;12.30;99.90;;;;;;5038930;28;20048;-77
2022/12/25 11:15:35;;;;;;;0.30;0.30;;;12.30;99.90;;;;;;5042051;28;20376;-77
2022/12/25 11:18:03;;;;;;;0.47;0.30;;;12.40;99.90;;;;;;5051173;28;20105;-76
2022/12/25 11:20:32;;;;;;;0.60;0.40;;;12.40;99.90;;;;;;5053790;28;20571;-77
2022/12/25 11:22:59;;;;;;;0.28;0.28;;;12.30;99.90;;;;;;5057202;28;20468;-78
2022/12/25 11:25:26;;;;;;;0.50;0.50;;;12.40;99.90;;;;;;5057959;28;20131;-77
2022/12/25 11:28:03;;;;;;;0.52;0.38;;;12.40;99.90;;;;;;5040220;28;20067;-79
2022/12/25 11:30:31;;;;;;;0.40;0.40;;;12.40;99.90;;;;;;5027347;28;20545;-77
2022/12/25 11:33:06;;;;;;;0.63;0.40;;;12.50;99.90;;;;;;5060384;28;20063;-78
2022/12/25 11:35:49;;;;;;;0.40;0.40;;;12.60;99.90;;;;;;5073562;28;20494;-90
2022/12/25 11:38:16;;;;;;;0.68;0.30;;;12.80;99.90;;;;;;5063108;28;20092;-82
2022/12/25 11:40:54;;;;;;;0.38;0.38;;;12.90;99.90;;;;;;5041384;28;20067;-83
2022/12/25 11:43:34;;;;;;;0.45;0.40;;;13.00;99.90;;;;;;5053501;28;20153;-82
2022/12/25 11:46:30;;;;;;;0.68;0.50;;;13.00;99.90;;;;;;5029600;28;20136;-88
2022/12/25 11:48:59;;;;;;;0.70;0.50;;;13.10;99.90;;;;;;5047141;28;20487;-86
2022/12/25 11:51:30;;;;;;;0.98;0.47;;;13.20;99.90;;;;;;5051458;28;20147;-83
2022/12/25 11:54:57;;;;;;;0.52;0.47;;;13.30;99.90;;;;;;5059046;28;20044;-85
2022/12/25 11:57:24;;;;;;;0.50;0.50;;;13.40;99.90;;;;;;5048040;28;20066;-87
2022/12/25 11:59:55;;;;;;;0.60;0.60;;;13.50;99.90;;;;;;5059401;28;20040;-87
2022/12/25 12:02:33;;;;;;;0.77;0.68;;;13.50;99.90;;;;;;5038937;28;20107;-89
2022/12/25 12:05:23;;;;;;;0.73;0.50;;;13.50;99.90;;;;;;5063180;28;21365;-87
2022/12/25 12:08:00;;;;;;;1.30;0.60;;;13.50;99.90;;;;;;5041458;28;20377;-84
2022/12/25 12:11:14;;;;;;;0.70;0.60;;;13.50;99.90;;;;;;5053821;28;20053;-84
2022/12/25 12:14:11;;;;;;;1.00;0.90;;;13.50;99.90;;;;;;5049061;28;20449;-84
2022/12/25 12:16:38;;;;;;;1.35;0.60;;;13.60;99.90;;;;;;5051786;28;20395;-78
2022/12/25 12:19:12;;;;;;;0.57;0.57;;;13.70;99.90;;;;;;5049084;28;20040;-77
2022/12/25 12:21:39;;;;;;;2.38;0.90;;;13.80;99.90;;;;;;5030744;28;20048;-77
2022/12/25 12:24:12;;;;;;;1.17;0.70;;;13.90;99.90;;;;;;5048874;28;20491;-79
2022/12/25 12:26:40;;;;;;;0.57;0.50;;;14.00;99.90;;;;;;5043605;28;20048;-78
2022/12/25 12:29:19;;;;;;;1.10;0.70;;;14.20;99.90;;;;;;5037963;28;20124;-77
2022/12/25 12:31:47;;;;;;;0.80;0.40;;;14.30;99.90;;;;;;5032885;28;20045;-76
2022/12/25 12:34:21;;;;;;;0.47;0.38;;;14.30;99.90;;;;;;5051537;28;20134;-75
2022/12/25 12:36:49;;;;;;;0.68;0.60;;;14.30;99.90;;;;;;5048061;28;20055;-76
2022/12/25 12:39:22;;;;;;;0.40;0.40;;;14.40;99.90;;;;;;5047465;28;20049;-75
2022/12/25 12:41:48;;;;;;;;;;;14.40;99.90;;;;;;5031358;28;20061;-76
2022/12/25 12:44:16;;;;;;;0.45;0.40;;;14.50;99.90;;;;;;5073373;28;19958;-76
2022/12/25 12:46:53;;;;;;;1.25;0.60;;;14.40;99.90;;;;;;5044715;28;20052;-77
2022/12/25 12:49:33;;;;;;;0.90;0.40;;;14.30;99.90;;;;;;5031986;28;20460;-76
2022/12/25 12:52:22;;;;;;;0.68;0.50;;;14.20;99.90;;;;;;5047920;28;20099;-75
2022/12/25 12:55:11;;;;;;;0.82;0.60;;;14.10;99.90;;;;;;5032119;28;20460;-75
2022/12/25 12:57:38;;;;;;;0.70;0.50;;;13.90;99.90;;;;;;5048256;28;20063;-76
2022/12/25 13:00:16;;;;;;;0.30;0.30;;;13.80;99.90;;;;;;5044351;28;20044;-76
2022/12/25 13:02:59;;;;;;;1.02;0.43;;;13.80;99.90;;;;;;5044448;28;20136;-75
2022/12/25 13:05:37;;;;;;;0.67;0.60;;;13.70;99.90;;;;;;5050950;28;20055;-75
2022/12/25 13:08:13;;;;;;;0.40;0.40;;;13.60;99.90;;;;;;5049720;28;20301;-78
2022/12/25 13:10:50;;;;;;;0.63;0.30;;;13.40;99.90;;;;;;5054152;28;20059;-76
2022/12/25 13:13:19;;;;;;;0.43;0.40;;;13.40;99.90;;;;;;5034698;28;20041;-76
2022/12/25 13:15:47;;;;;;;0.93;0.47;;;13.30;99.90;;;;;;5038649;28;20123;-76
2022/12/25 13:18:14;;;;;;;0.80;0.50;;;13.30;99.90;;;;;;5043528;28;20071;-75
2022/12/25 13:20:56;;;;;;;0.77;0.75;;;13.30;99.90;;;;;;5050534;28;20135;-76
2022/12/25 13:23:33;;;;;;;1.17;0.68;;;13.30;99.90;;;;;;5054812;28;20064;-76
2022/12/25 13:26:04;;;;;;;0.40;0.40;;;13.20;99.90;;;;;;5049237;28;20143;-76
2022/12/25 13:28:35;;;;;;;0.63;0.55;;;13.10;99.90;;;;;;5026499;28;20164;-76
2022/12/25 13:31:19;;;;;;;0.73;0.52;;;13.10;99.90;;;;;;5038168;28;20426;-75
2022/12/25 13:34:22;;;;;;;2.58;0.73;;;13.10;99.90;;;;;;5027834;28;20105;-74
2022/12/25 13:36:49;;;;;;;0.90;0.57;;;13.00;99.90;;;;;;5036839;28;20081;-75
2022/12/25 13:39:16;;;;;;;1.08;0.60;;;12.90;99.90;;;;;;5037561;28;20972;-74
2022/12/25 13:42:05;;;;;;;0.90;0.63;;;12.90;99.90;;;;;;5076606;28;20053;-75
2022/12/25 13:44:37;;;;;;;1.27;0.77;;;12.90;99.90;;;;;;5043977;28;20868;-74
2022/12/25 13:47:36;;;;;;;1.55;0.88;;;12.80;99.90;;;;;;5044805;28;20666;-76
2022/12/25 13:50:22;;;;;;;0.90;0.43;;;12.80;99.90;;;;;;5046393;28;20152;-75
2022/12/25 13:52:49;;;;;;;2.85;0.60;;;12.70;99.90;;;;;;5045526;28;20140;-76
2022/12/25 13:55:26;;;;;;;0.93;0.70;;;12.70;99.90;;;;;;5037919;28;20048;-75
2022/12/25 13:58:00;;;;;;;0.85;0.50;;;12.60;99.90;;;;;;5055543;28;20134;-75
2022/12/25 14:00:45;;;;;;;0.57;0.50;;;12.60;99.90;;;;;;5050500;28;20128;-76
2022/12/25 14:03:18;;;;;;;1.15;0.50;;;12.50;99.90;;;;;;5043998;28;20048;-78
2022/12/25 14:05:45;;;;;;;0.85;0.40;;;12.40;99.90;;;;;;5050135;28;20102;-76
2022/12/25 14:08:13;;;;;;;0.90;0.40;;;12.40;99.90;;;;;;5050973;28;20167;-78
2022/12/25 14:10:40;;;;;;;0.85;0.40;;;12.40;99.90;;;;;;5050793;28;20078;-78
2022/12/25 14:13:10;;;;;;;0.68;0.43;;;12.40;99.90;;;;;;5052908;28;20150;-77
2022/12/25 14:15:37;;;;;;;0.70;0.50;;;12.30;99.90;;;;;;5046981;28;20044;-77
2022/12/25 14:18:04;;;;;;;0.63;0.30;;;12.30;99.90;;;;;;5048145;28;20048;-78
2022/12/25 14:20:36;;;;;;;0.73;0.40;;;12.30;99.90;;;;;;5050794;28;20070;-79
2022/12/25 14:23:03;;;;;;;0.50;0.35;;;12.30;99.90;;;;;;5055930;28;20060;-81
2022/12/25 14:25:32;;;;;;;0.38;0.38;;;12.30;99.90;;;;;;5019178;28;20068;-80
2022/12/25 14:27:59;;;;;;;0.98;0.40;;;12.30;99.90;;;;;;5061217;28;20115;-80
2022/12/25 14:30:26;;;;;;;0.50;0.40;;;12.40;99.90;;;;;;5013584;28;20189;-80
2022/12/25 14:32:54;;;;;;;0.57;0.43;;;12.40;99.90;;;;;;5037188;28;20048;-79
2022/12/25 14:35:22;;;;;;;0.52;0.38;;;12.40;99.90;;;;;;5055206;28;20143;-79
2022/12/25 14:37:54;;;;;;;0.40;0.40;;;12.40;99.90;;;;;;5052014;28;20048;-81
2022/12/25 14:40:25;;;;;;;0.52;0.20;;;12.40;99.90;;;;;;5038558;28;20048;-80
2022/12/25 14:42:59;;;;;;;0.50;0.45;;;12.40;99.90;;;;;;5048500;28;20048;-80
2022/12/25 14:45:34;;;;;;;0.50;0.50;;;12.40;99.90;;;;;;5018913;28;20553;-79
2022/12/25 14:48:14;;;;;;;0.40;0.30;;;12.30;99.90;;;;;;5052772;28;20893;-79
2022/12/25 14:50:58;;;;;;;0.50;0.40;;;12.30;99.90;;;;;;5022060;28;20158;-78